sensor_id;sensor_type;location;lat;lon;timestamp;P1;durP1;ratioP1;P2;durP2;ratioP2
1276;SDS011;631;51.024;13.826;2023-05-10T00:00:38;11.70;;;11.00;;
1276;SDS011;631;51.024;13.826;2023-05-10T00:03:04;11.80;;;11.20;;
1276;SDS011;631;51.024;13.826;2023-05-10T00:05:30;11.73;;;11.13;;
1276;SDS011;631;51.024;13.826;2023-05-10T00:07:56;11.63;;;10.83;;
1276;SDS011;631;51.024;13.826;2023-05-10T00:10:22;11.67;;;11.07;;
1276;SDS011;631;51.024;13.826;2023-05-10T00:12:48;11.50;;;10.93;;
1276;SDS011;631;51.024;13.826;2023-05-10T00:15:13;11.80;;;11.20;;
1276;SDS011;631;51.024;13.826;2023-05-10T00:17:39;11.80;;;11.20;;
1276;SDS011;631;51.024;13.826;2023-05-10T00:20:05;11.60;;;11.00;;
1276;SDS011;631;51.024;13.826;2023-05-10T00:22:31;11.67;;;11.07;;
1276;SDS011;631;51.024;13.826;2023-05-10T00:24:57;11.40;;;10.80;;
1276;SDS011;631;51.024;13.826;2023-05-10T00:27:23;11.63;;;11.07;;
1276;SDS011;631;51.024;13.826;2023-05-10T00:29:49;11.73;;;11.10;;
1276;SDS011;631;51.024;13.826;2023-05-10T00:32:14;11.80;;;11.20;;
1276;SDS011;631;51.024;13.826;2023-05-10T00:34:41;11.87;;;11.23;;
1276;SDS011;631;51.024;13.826;2023-05-10T00:37:06;12.07;;;11.47;;
1276;SDS011;631;51.024;13.826;2023-05-10T00:39:32;12.13;;;11.43;;
1276;SDS011;631;51.024;13.826;2023-05-10T00:41:58;11.57;;;10.97;;
1276;SDS011;631;51.024;13.826;2023-05-10T00:44:24;11.27;;;10.67;;
1276;SDS011;631;51.024;13.826;2023-05-10T00:46:50;11.27;;;10.67;;
1276;SDS011;631;51.024;13.826;2023-05-10T00:49:16;11.77;;;11.07;;
1276;SDS011;631;51.024;13.826;2023-05-10T00:51:42;11.80;;;11.20;;
1276;SDS011;631;51.024;13.826;2023-05-10T00:54:10;11.50;;;10.90;;
1276;SDS011;631;51.024;13.826;2023-05-10T00:56:38;11.47;;;10.87;;
1276;SDS011;631;51.024;13.826;2023-05-10T00:59:05;11.50;;;10.90;;
1276;SDS011;631;51.024;13.826;2023-05-10T01:01:31;11.07;;;10.57;;
1276;SDS011;631;51.024;13.826;2023-05-10T01:03:56;11.40;;;10.80;;
1276;SDS011;631;51.024;13.826;2023-05-10T01:06:23;10.83;;;10.33;;
1276;SDS011;631;51.024;13.826;2023-05-10T01:08:49;11.50;;;10.90;;
1276;SDS011;631;51.024;13.826;2023-05-10T01:11:15;10.80;;;10.30;;
1276;SDS011;631;51.024;13.826;2023-05-10T01:13:41;10.67;;;10.17;;
1276;SDS011;631;51.024;13.826;2023-05-10T01:16:08;11.10;;;10.50;;
1276;SDS011;631;51.024;13.826;2023-05-10T01:18:35;10.23;;;9.73;;
1276;SDS011;631;51.024;13.826;2023-05-10T01:27:07;10.80;;;10.27;;
1276;SDS011;631;51.024;13.826;2023-05-10T01:35:34;11.03;;;10.53;;
1276;SDS011;631;51.024;13.826;2023-05-10T01:38:16;11.40;;;10.80;;
1276;SDS011;631;51.024;13.826;2023-05-10T01:43:21;11.40;;;10.90;;
1276;SDS011;631;51.024;13.826;2023-05-10T01:48:25;11.40;;;10.80;;
1276;SDS011;631;51.024;13.826;2023-05-10T01:50:53;10.80;;;10.30;;
1276;SDS011;631;51.024;13.826;2023-05-10T01:53:21;11.53;;;10.93;;
1276;SDS011;631;51.024;13.826;2023-05-10T01:55:48;11.13;;;10.63;;
1276;SDS011;631;51.024;13.826;2023-05-10T01:58:20;11.47;;;10.87;;
1276;SDS011;631;51.024;13.826;2023-05-10T02:00:48;10.20;;;9.70;;
1276;SDS011;631;51.024;13.826;2023-05-10T02:03:15;10.87;;;10.37;;
1276;SDS011;631;51.024;13.826;2023-05-10T02:05:43;11.13;;;10.30;;
1276;SDS011;631;51.024;13.826;2023-05-10T02:08:11;10.50;;;10.00;;
1276;SDS011;631;51.024;13.826;2023-05-10T02:10:38;11.20;;;10.60;;
1276;SDS011;631;51.024;13.826;2023-05-10T02:13:05;10.97;;;10.40;;
1276;SDS011;631;51.024;13.826;2023-05-10T02:15:32;11.53;;;10.93;;
1276;SDS011;631;51.024;13.826;2023-05-10T02:17:59;10.43;;;9.93;;
1276;SDS011;631;51.024;13.826;2023-05-10T02:20:26;10.63;;;10.13;;
1276;SDS011;631;51.024;13.826;2023-05-10T02:22:54;10.87;;;10.37;;
1276;SDS011;631;51.024;13.826;2023-05-10T02:25:21;10.87;;;10.27;;
1276;SDS011;631;51.024;13.826;2023-05-10T02:27:48;11.13;;;10.60;;
1276;SDS011;631;51.024;13.826;2023-05-10T02:30:14;10.90;;;10.40;;
1276;SDS011;631;51.024;13.826;2023-05-10T02:32:41;10.67;;;10.17;;
1276;SDS011;631;51.024;13.826;2023-05-10T02:35:08;10.70;;;10.20;;
1276;SDS011;631;51.024;13.826;2023-05-10T02:37:35;10.80;;;10.20;;
1276;SDS011;631;51.024;13.826;2023-05-10T02:40:02;10.60;;;10.10;;
1276;SDS011;631;51.024;13.826;2023-05-10T02:42:31;11.17;;;10.67;;
1276;SDS011;631;51.024;13.826;2023-05-10T02:45:01;11.10;;;10.50;;
1276;SDS011;631;51.024;13.826;2023-05-10T02:47:30;11.27;;;10.67;;
1276;SDS011;631;51.024;13.826;2023-05-10T02:49:56;10.90;;;10.40;;
1276;SDS011;631;51.024;13.826;2023-05-10T02:52:23;11.53;;;10.93;;
1276;SDS011;631;51.024;13.826;2023-05-10T02:54:54;10.90;;;10.40;;
1276;SDS011;631;51.024;13.826;2023-05-10T02:57:27;11.67;;;11.07;;
1276;SDS011;631;51.024;13.826;2023-05-10T02:59:56;12.13;;;11.47;;
1276;SDS011;631;51.024;13.826;2023-05-10T03:02:22;11.60;;;10.90;;
1276;SDS011;631;51.024;13.826;2023-05-10T03:04:48;11.37;;;10.60;;
1276;SDS011;631;51.024;13.826;2023-05-10T03:07:13;11.07;;;10.47;;
1276;SDS011;631;51.024;13.826;2023-05-10T03:09:39;11.53;;;10.93;;
1276;SDS011;631;51.024;13.826;2023-05-10T03:20:22;10.77;;;10.27;;
1276;SDS011;631;51.024;13.826;2023-05-10T03:22:55;10.50;;;10.00;;
1276;SDS011;631;51.024;13.826;2023-05-10T03:25:33;11.57;;;10.87;;
1276;SDS011;631;51.024;13.826;2023-05-10T03:28:00;10.93;;;10.40;;
1276;SDS011;631;51.024;13.826;2023-05-10T03:30:28;11.20;;;10.60;;
1276;SDS011;631;51.024;13.826;2023-05-10T03:32:54;11.77;;;11.07;;
1276;SDS011;631;51.024;13.826;2023-05-10T03:35:20;11.20;;;10.60;;
1276;SDS011;631;51.024;13.826;2023-05-10T03:37:46;10.77;;;10.17;;
1276;SDS011;631;51.024;13.826;2023-05-10T03:40:12;11.30;;;10.70;;
1276;SDS011;631;51.024;13.826;2023-05-10T03:42:37;10.90;;;10.40;;
1276;SDS011;631;51.024;13.826;2023-05-10T03:45:03;11.07;;;10.57;;
1276;SDS011;631;51.024;13.826;2023-05-10T03:47:29;11.00;;;10.40;;
1276;SDS011;631;51.024;13.826;2023-05-10T03:49:55;10.90;;;10.30;;
1276;SDS011;631;51.024;13.826;2023-05-10T03:52:20;11.30;;;10.70;;
1276;SDS011;631;51.024;13.826;2023-05-10T03:54:46;10.70;;;10.20;;
1276;SDS011;631;51.024;13.826;2023-05-10T03:57:11;10.10;;;9.60;;
1276;SDS011;631;51.024;13.826;2023-05-10T03:59:37;10.33;;;9.80;;
1276;SDS011;631;51.024;13.826;2023-05-10T04:02:02;11.17;;;10.47;;
1276;SDS011;631;51.024;13.826;2023-05-10T04:04:28;10.67;;;10.17;;
1276;SDS011;631;51.024;13.826;2023-05-10T04:06:54;10.87;;;10.37;;
1276;SDS011;631;51.024;13.826;2023-05-10T04:09:19;10.70;;;10.10;;
1276;SDS011;631;51.024;13.826;2023-05-10T04:11:45;11.10;;;10.50;;
1276;SDS011;631;51.024;13.826;2023-05-10T04:14:11;10.30;;;9.70;;
1276;SDS011;631;51.024;13.826;2023-05-10T04:16:36;11.17;;;10.57;;
1276;SDS011;631;51.024;13.826;2023-05-10T04:19:02;10.47;;;9.97;;
1276;SDS011;631;51.024;13.826;2023-05-10T04:21:28;9.83;;;9.33;;
1276;SDS011;631;51.024;13.826;2023-05-10T04:23:54;10.50;;;10.00;;
1276;SDS011;631;51.024;13.826;2023-05-10T04:26:19;10.40;;;9.80;;
1276;SDS011;631;51.024;13.826;2023-05-10T04:28:45;10.30;;;9.80;;
1276;SDS011;631;51.024;13.826;2023-05-10T04:31:11;10.90;;;10.40;;
1276;SDS011;631;51.024;13.826;2023-05-10T04:33:37;10.60;;;10.10;;
1276;SDS011;631;51.024;13.826;2023-05-10T04:36:03;11.07;;;10.37;;
1276;SDS011;631;51.024;13.826;2023-05-10T04:38:29;10.37;;;9.83;;
1276;SDS011;631;51.024;13.826;2023-05-10T04:40:55;10.53;;;9.93;;
1276;SDS011;631;51.024;13.826;2023-05-10T04:43:35;10.60;;;10.00;;
1276;SDS011;631;51.024;13.826;2023-05-10T04:46:01;10.87;;;10.23;;
1276;SDS011;631;51.024;13.826;2023-05-10T04:48:26;10.47;;;9.93;;
1276;SDS011;631;51.024;13.826;2023-05-10T04:50:52;10.50;;;9.90;;
1276;SDS011;631;51.024;13.826;2023-05-10T04:53:18;10.30;;;9.80;;
1276;SDS011;631;51.024;13.826;2023-05-10T04:55:43;10.43;;;9.83;;
1276;SDS011;631;51.024;13.826;2023-05-10T04:58:09;10.30;;;9.70;;
1276;SDS011;631;51.024;13.826;2023-05-10T05:00:35;9.73;;;9.23;;
1276;SDS011;631;51.024;13.826;2023-05-10T05:03:01;10.80;;;10.20;;
1276;SDS011;631;51.024;13.826;2023-05-10T05:05:26;9.20;;;8.80;;
1276;SDS011;631;51.024;13.826;2023-05-10T05:07:52;10.00;;;9.50;;
1276;SDS011;631;51.024;13.826;2023-05-10T05:10:17;10.07;;;9.37;;
1276;SDS011;631;51.024;13.826;2023-05-10T05:12:43;9.30;;;8.83;;
1276;SDS011;631;51.024;13.826;2023-05-10T05:15:09;9.50;;;9.00;;
1276;SDS011;631;51.024;13.826;2023-05-10T05:17:35;10.07;;;9.57;;
1276;SDS011;631;51.024;13.826;2023-05-10T05:20:01;9.33;;;8.83;;
1276;SDS011;631;51.024;13.826;2023-05-10T05:22:28;10.23;;;9.63;;
1276;SDS011;631;51.024;13.826;2023-05-10T05:24:54;9.77;;;9.27;;
1276;SDS011;631;51.024;13.826;2023-05-10T05:27:20;9.40;;;8.90;;
1276;SDS011;631;51.024;13.826;2023-05-10T05:29:52;9.20;;;8.70;;
1276;SDS011;631;51.024;13.826;2023-05-10T05:32:19;10.20;;;9.70;;
1276;SDS011;631;51.024;13.826;2023-05-10T05:34:45;9.60;;;9.00;;
1276;SDS011;631;51.024;13.826;2023-05-10T05:37:17;10.07;;;9.57;;
1276;SDS011;631;51.024;13.826;2023-05-10T05:39:45;10.97;;;10.40;;
1276;SDS011;631;51.024;13.826;2023-05-10T05:42:10;10.60;;;10.10;;
1276;SDS011;631;51.024;13.826;2023-05-10T05:44:37;9.77;;;9.27;;
1276;SDS011;631;51.024;13.826;2023-05-10T05:47:03;10.73;;;10.20;;
1276;SDS011;631;51.024;13.826;2023-05-10T05:49:29;11.30;;;10.70;;
1276;SDS011;631;51.024;13.826;2023-05-10T05:51:58;11.43;;;10.80;;
1276;SDS011;631;51.024;13.826;2023-05-10T05:54:24;10.70;;;10.10;;
1276;SDS011;631;51.024;13.826;2023-05-10T05:56:50;10.90;;;10.37;;
1276;SDS011;631;51.024;13.826;2023-05-10T05:59:15;9.80;;;9.33;;
1276;SDS011;631;51.024;13.826;2023-05-10T06:01:41;11.03;;;10.43;;
1276;SDS011;631;51.024;13.826;2023-05-10T06:04:06;9.67;;;9.17;;
1276;SDS011;631;51.024;13.826;2023-05-10T06:06:32;10.57;;;10.07;;
1276;SDS011;631;51.024;13.826;2023-05-10T06:08:58;10.03;;;9.50;;
1276;SDS011;631;51.024;13.826;2023-05-10T06:11:23;10.80;;;10.20;;
1276;SDS011;631;51.024;13.826;2023-05-10T06:13:50;11.53;;;10.93;;
1276;SDS011;631;51.024;13.826;2023-05-10T06:16:15;11.40;;;10.80;;
1276;SDS011;631;51.024;13.826;2023-05-10T06:18:42;9.47;;;9.00;;
1276;SDS011;631;51.024;13.826;2023-05-10T06:21:08;11.00;;;10.50;;
1276;SDS011;631;51.024;13.826;2023-05-10T06:23:34;11.07;;;10.50;;
1276;SDS011;631;51.024;13.826;2023-05-10T06:26:00;11.10;;;10.60;;
1276;SDS011;631;51.024;13.826;2023-05-10T06:28:26;11.40;;;10.90;;
1276;SDS011;631;51.024;13.826;2023-05-10T06:30:51;9.67;;;9.17;;
1276;SDS011;631;51.024;13.826;2023-05-10T06:33:17;10.97;;;10.27;;
1276;SDS011;631;51.024;13.826;2023-05-10T06:35:42;10.20;;;9.70;;
1276;SDS011;631;51.024;13.826;2023-05-10T06:38:08;11.17;;;10.57;;
1276;SDS011;631;51.024;13.826;2023-05-10T06:40:34;10.30;;;9.80;;
1276;SDS011;631;51.024;13.826;2023-05-10T06:43:00;10.53;;;10.03;;
1276;SDS011;631;51.024;13.826;2023-05-10T06:45:26;11.33;;;10.73;;
1276;SDS011;631;51.024;13.826;2023-05-10T06:47:52;10.80;;;10.30;;
1276;SDS011;631;51.024;13.826;2023-05-10T06:50:17;10.57;;;10.07;;
1276;SDS011;631;51.024;13.826;2023-05-10T06:52:43;10.67;;;9.97;;
1276;SDS011;631;51.024;13.826;2023-05-10T06:55:09;11.27;;;10.67;;
1276;SDS011;631;51.024;13.826;2023-05-10T06:57:35;10.40;;;9.90;;
1276;SDS011;631;51.024;13.826;2023-05-10T07:00:01;10.40;;;9.80;;
1276;SDS011;631;51.024;13.826;2023-05-10T07:02:29;10.90;;;10.30;;
1276;SDS011;631;51.024;13.826;2023-05-10T07:04:54;10.57;;;10.07;;
1276;SDS011;631;51.024;13.826;2023-05-10T07:07:20;10.53;;;9.93;;
1276;SDS011;631;51.024;13.826;2023-05-10T07:09:46;12.27;;;11.67;;
1276;SDS011;631;51.024;13.826;2023-05-10T07:12:11;11.77;;;11.17;;
1276;SDS011;631;51.024;13.826;2023-05-10T07:14:37;11.80;;;10.90;;
1276;SDS011;631;51.024;13.826;2023-05-10T07:17:03;11.30;;;10.50;;
1276;SDS011;631;51.024;13.826;2023-05-10T07:19:29;11.77;;;11.17;;
1276;SDS011;631;51.024;13.826;2023-05-10T07:21:54;11.63;;;11.03;;
1276;SDS011;631;51.024;13.826;2023-05-10T07:24:20;11.40;;;10.80;;
1276;SDS011;631;51.024;13.826;2023-05-10T07:26:46;12.10;;;11.47;;
1276;SDS011;631;51.024;13.826;2023-05-10T07:29:11;12.03;;;11.33;;
1276;SDS011;631;51.024;13.826;2023-05-10T07:31:37;10.30;;;9.80;;
1276;SDS011;631;51.024;13.826;2023-05-10T07:34:03;10.73;;;10.13;;
1276;SDS011;631;51.024;13.826;2023-05-10T07:36:28;12.13;;;11.53;;
1276;SDS011;631;51.024;13.826;2023-05-10T07:38:54;11.90;;;11.30;;
1276;SDS011;631;51.024;13.826;2023-05-10T07:41:19;12.20;;;11.60;;
1276;SDS011;631;51.024;13.826;2023-05-10T07:43:46;11.67;;;11.07;;
1276;SDS011;631;51.024;13.826;2023-05-10T07:46:11;12.70;;;12.00;;
1276;SDS011;631;51.024;13.826;2023-05-10T07:48:37;13.37;;;12.57;;
1276;SDS011;631;51.024;13.826;2023-05-10T07:51:02;12.83;;;12.23;;
1276;SDS011;631;51.024;13.826;2023-05-10T07:53:28;12.20;;;11.60;;
1276;SDS011;631;51.024;13.826;2023-05-10T07:55:54;13.10;;;12.40;;
1276;SDS011;631;51.024;13.826;2023-05-10T07:58:23;12.40;;;11.70;;
1276;SDS011;631;51.024;13.826;2023-05-10T08:00:49;12.53;;;11.70;;
1276;SDS011;631;51.024;13.826;2023-05-10T08:03:14;12.37;;;11.77;;
1276;SDS011;631;51.024;13.826;2023-05-10T08:05:40;13.13;;;12.23;;
1276;SDS011;631;51.024;13.826;2023-05-10T08:08:06;13.03;;;12.33;;
1276;SDS011;631;51.024;13.826;2023-05-10T08:10:32;13.00;;;12.10;;
1276;SDS011;631;51.024;13.826;2023-05-10T08:12:57;12.47;;;11.77;;
1276;SDS011;631;51.024;13.826;2023-05-10T08:15:23;12.83;;;12.13;;
1276;SDS011;631;51.024;13.826;2023-05-10T08:17:51;12.50;;;11.80;;
1276;SDS011;631;51.024;13.826;2023-05-10T08:20:17;12.70;;;12.10;;
1276;SDS011;631;51.024;13.826;2023-05-10T08:22:44;12.90;;;12.20;;
1276;SDS011;631;51.024;13.826;2023-05-10T08:25:10;12.13;;;11.43;;
1276;SDS011;631;51.024;13.826;2023-05-10T08:27:36;13.33;;;12.53;;
1276;SDS011;631;51.024;13.826;2023-05-10T08:30:01;12.43;;;11.73;;
1276;SDS011;631;51.024;13.826;2023-05-10T08:32:27;12.43;;;11.80;;
1276;SDS011;631;51.024;13.826;2023-05-10T08:34:53;12.97;;;12.27;;
1276;SDS011;631;51.024;13.826;2023-05-10T08:37:18;12.70;;;12.00;;
1276;SDS011;631;51.024;13.826;2023-05-10T08:39:44;13.53;;;12.83;;
1276;SDS011;631;51.024;13.826;2023-05-10T08:42:12;12.50;;;11.80;;
1276;SDS011;631;51.024;13.826;2023-05-10T08:44:44;13.97;;;12.53;;
1276;SDS011;631;51.024;13.826;2023-05-10T08:47:13;13.33;;;12.63;;
1276;SDS011;631;51.024;13.826;2023-05-10T08:49:41;13.33;;;12.63;;
1276;SDS011;631;51.024;13.826;2023-05-10T08:52:09;12.70;;;12.07;;
1276;SDS011;631;51.024;13.826;2023-05-10T08:54:38;13.17;;;12.47;;
1276;SDS011;631;51.024;13.826;2023-05-10T08:57:03;13.13;;;12.43;;
1276;SDS011;631;51.024;13.826;2023-05-10T08:59:29;12.20;;;11.60;;
1276;SDS011;631;51.024;13.826;2023-05-10T09:01:58;13.60;;;12.90;;
1276;SDS011;631;51.024;13.826;2023-05-10T09:04:25;13.30;;;12.50;;
1276;SDS011;631;51.024;13.826;2023-05-10T09:06:51;12.97;;;12.37;;
1276;SDS011;631;51.024;13.826;2023-05-10T09:09:17;13.23;;;12.53;;
1276;SDS011;631;51.024;13.826;2023-05-10T09:11:43;13.50;;;12.73;;
1276;SDS011;631;51.024;13.826;2023-05-10T09:14:09;13.77;;;12.97;;
1276;SDS011;631;51.024;13.826;2023-05-10T09:16:37;12.67;;;11.97;;
1276;SDS011;631;51.024;13.826;2023-05-10T09:19:02;12.73;;;12.13;;
1276;SDS011;631;51.024;13.826;2023-05-10T09:21:28;12.90;;;12.30;;
1276;SDS011;631;51.024;13.826;2023-05-10T09:23:56;13.23;;;12.53;;
1276;SDS011;631;51.024;13.826;2023-05-10T09:26:22;13.90;;;13.20;;
1276;SDS011;631;51.024;13.826;2023-05-10T09:28:52;12.50;;;11.90;;
1276;SDS011;631;51.024;13.826;2023-05-10T09:31:19;11.87;;;11.27;;
1276;SDS011;631;51.024;13.826;2023-05-10T09:33:45;13.10;;;12.40;;
1276;SDS011;631;51.024;13.826;2023-05-10T09:36:12;11.83;;;11.13;;
1276;SDS011;631;51.024;13.826;2023-05-10T09:43:47;12.67;;;11.97;;
1276;SDS011;631;51.024;13.826;2023-05-10T09:46:13;13.20;;;12.50;;
1276;SDS011;631;51.024;13.826;2023-05-10T09:48:41;13.30;;;12.60;;
1276;SDS011;631;51.024;13.826;2023-05-10T09:51:08;12.97;;;12.27;;
1276;SDS011;631;51.024;13.826;2023-05-10T09:53:34;13.27;;;12.57;;
1276;SDS011;631;51.024;13.826;2023-05-10T09:56:00;12.43;;;11.83;;
1276;SDS011;631;51.024;13.826;2023-05-10T09:58:25;12.57;;;11.97;;
1276;SDS011;631;51.024;13.826;2023-05-10T10:00:51;12.63;;;12.03;;
1276;SDS011;631;51.024;13.826;2023-05-10T10:03:19;12.77;;;12.07;;
1276;SDS011;631;51.024;13.826;2023-05-10T10:05:46;14.10;;;13.40;;
1276;SDS011;631;51.024;13.826;2023-05-10T10:08:13;12.77;;;12.17;;
1276;SDS011;631;51.024;13.826;2023-05-10T10:10:39;13.20;;;12.50;;
1276;SDS011;631;51.024;13.826;2023-05-10T10:13:06;13.67;;;12.97;;
1276;SDS011;631;51.024;13.826;2023-05-10T10:15:32;14.10;;;13.30;;
1276;SDS011;631;51.024;13.826;2023-05-10T10:18:01;13.37;;;12.67;;
1276;SDS011;631;51.024;13.826;2023-05-10T10:20:28;13.60;;;12.80;;
1276;SDS011;631;51.024;13.826;2023-05-10T10:22:54;13.10;;;12.40;;
1276;SDS011;631;51.024;13.826;2023-05-10T10:25:20;12.10;;;11.60;;
1276;SDS011;631;51.024;13.826;2023-05-10T10:36:21;12.60;;;11.87;;
1276;SDS011;631;51.024;13.826;2023-05-10T10:54:50;13.43;;;12.73;;
1276;SDS011;631;51.024;13.826;2023-05-10T10:57:19;13.00;;;12.30;;
1276;SDS011;631;51.024;13.826;2023-05-10T10:59:48;14.00;;;13.20;;
1276;SDS011;631;51.024;13.826;2023-05-10T11:02:36;13.73;;;12.93;;
1276;SDS011;631;51.024;13.826;2023-05-10T11:05:49;12.13;;;11.53;;
1276;SDS011;631;51.024;13.826;2023-05-10T11:08:26;12.20;;;11.60;;
1276;SDS011;631;51.024;13.826;2023-05-10T11:15:54;13.47;;;12.77;;
1276;SDS011;631;51.024;13.826;2023-05-10T11:18:28;13.27;;;12.40;;
1276;SDS011;631;51.024;13.826;2023-05-10T11:20:59;13.10;;;12.50;;
1276;SDS011;631;51.024;13.826;2023-05-10T11:23:33;13.10;;;12.40;;
1276;SDS011;631;51.024;13.826;2023-05-10T11:26:12;12.50;;;11.90;;
1276;SDS011;631;51.024;13.826;2023-05-10T11:28:42;12.93;;;12.23;;
1276;SDS011;631;51.024;13.826;2023-05-10T11:31:15;12.93;;;12.33;;
1276;SDS011;631;51.024;13.826;2023-05-10T11:33:42;13.27;;;12.67;;
1276;SDS011;631;51.024;13.826;2023-05-10T11:36:20;13.57;;;12.93;;
1276;SDS011;631;51.024;13.826;2023-05-10T11:38:46;13.00;;;12.40;;
1276;SDS011;631;51.024;13.826;2023-05-10T11:41:13;13.23;;;12.40;;
1276;SDS011;631;51.024;13.826;2023-05-10T11:43:40;13.47;;;12.77;;
1276;SDS011;631;51.024;13.826;2023-05-10T11:46:07;12.90;;;12.23;;
1276;SDS011;631;51.024;13.826;2023-05-10T11:48:35;12.80;;;12.20;;
1276;SDS011;631;51.024;13.826;2023-05-10T11:51:03;12.20;;;11.40;;
1276;SDS011;631;51.024;13.826;2023-05-10T11:53:29;13.50;;;12.90;;
1276;SDS011;631;51.024;13.826;2023-05-10T11:56:02;13.63;;;12.93;;
1276;SDS011;631;51.024;13.826;2023-05-10T11:58:32;12.57;;;11.97;;
1276;SDS011;631;51.024;13.826;2023-05-10T12:00:58;13.77;;;12.90;;
1276;SDS011;631;51.024;13.826;2023-05-10T12:03:24;13.50;;;12.80;;
1276;SDS011;631;51.024;13.826;2023-05-10T12:05:51;13.27;;;12.67;;
1276;SDS011;631;51.024;13.826;2023-05-10T12:08:19;12.83;;;12.23;;
1276;SDS011;631;51.024;13.826;2023-05-10T12:10:53;14.00;;;13.30;;
1276;SDS011;631;51.024;13.826;2023-05-10T12:13:28;13.53;;;12.83;;
1276;SDS011;631;51.024;13.826;2023-05-10T12:15:54;13.10;;;12.40;;
1276;SDS011;631;51.024;13.826;2023-05-10T12:18:23;13.60;;;13.00;;
1276;SDS011;631;51.024;13.826;2023-05-10T12:20:52;13.60;;;12.90;;
1276;SDS011;631;51.024;13.826;2023-05-10T12:23:18;12.87;;;12.17;;
1276;SDS011;631;51.024;13.826;2023-05-10T12:25:45;13.57;;;12.87;;
1276;SDS011;631;51.024;13.826;2023-05-10T12:28:12;13.97;;;13.20;;
1276;SDS011;631;51.024;13.826;2023-05-10T12:30:37;13.47;;;12.77;;
1276;SDS011;631;51.024;13.826;2023-05-10T12:33:11;13.30;;;12.70;;
1276;SDS011;631;51.024;13.826;2023-05-10T12:35:44;13.30;;;12.63;;
1276;SDS011;631;51.024;13.826;2023-05-10T12:41:01;12.90;;;12.20;;
1276;SDS011;631;51.024;13.826;2023-05-10T12:43:28;13.40;;;12.70;;
1276;SDS011;631;51.024;13.826;2023-05-10T12:45:55;12.67;;;12.07;;
1276;SDS011;631;51.024;13.826;2023-05-10T12:48:21;12.03;;;11.43;;
1276;SDS011;631;51.024;13.826;2023-05-10T12:50:46;12.30;;;11.70;;
1276;SDS011;631;51.024;13.826;2023-05-10T12:53:13;12.33;;;11.63;;
1276;SDS011;631;51.024;13.826;2023-05-10T12:55:40;12.40;;;11.80;;
1276;SDS011;631;51.024;13.826;2023-05-10T12:58:09;12.93;;;12.23;;
1276;SDS011;631;51.024;13.826;2023-05-10T13:00:35;12.10;;;11.50;;
1276;SDS011;631;51.024;13.826;2023-05-10T13:03:03;12.60;;;11.90;;
1276;SDS011;631;51.024;13.826;2023-05-10T13:05:32;12.77;;;11.80;;
1276;SDS011;631;51.024;13.826;2023-05-10T13:07:58;13.50;;;12.80;;
1276;SDS011;631;51.024;13.826;2023-05-10T13:10:23;12.20;;;11.57;;
1276;SDS011;631;51.024;13.826;2023-05-10T13:12:49;13.03;;;12.43;;
1276;SDS011;631;51.024;13.826;2023-05-10T13:15:15;14.13;;;13.43;;
1276;SDS011;631;51.024;13.826;2023-05-10T13:17:41;12.67;;;12.07;;
1276;SDS011;631;51.024;13.826;2023-05-10T13:20:07;12.80;;;12.20;;
1276;SDS011;631;51.024;13.826;2023-05-10T13:22:34;13.47;;;12.87;;
1276;SDS011;631;51.024;13.826;2023-05-10T13:25:00;13.30;;;12.70;;
1276;SDS011;631;51.024;13.826;2023-05-10T13:27:26;12.83;;;12.13;;
1276;SDS011;631;51.024;13.826;2023-05-10T13:29:52;13.17;;;12.57;;
1276;SDS011;631;51.024;13.826;2023-05-10T13:32:18;13.00;;;12.20;;
1276;SDS011;631;51.024;13.826;2023-05-10T13:34:44;13.57;;;12.87;;
1276;SDS011;631;51.024;13.826;2023-05-10T13:37:09;12.57;;;11.97;;
1276;SDS011;631;51.024;13.826;2023-05-10T13:39:35;12.67;;;11.97;;
1276;SDS011;631;51.024;13.826;2023-05-10T13:42:02;13.93;;;12.97;;
1276;SDS011;631;51.024;13.826;2023-05-10T13:44:28;13.70;;;12.93;;
1276;SDS011;631;51.024;13.826;2023-05-10T13:46:54;13.73;;;12.97;;
1276;SDS011;631;51.024;13.826;2023-05-10T13:49:20;13.73;;;13.03;;
1276;SDS011;631;51.024;13.826;2023-05-10T13:51:47;14.13;;;13.43;;
1276;SDS011;631;51.024;13.826;2023-05-10T13:54:12;12.20;;;11.60;;
1276;SDS011;631;51.024;13.826;2023-05-10T13:56:38;12.93;;;12.30;;
1276;SDS011;631;51.024;13.826;2023-05-10T13:59:05;12.90;;;12.20;;
1276;SDS011;631;51.024;13.826;2023-05-10T14:01:31;12.07;;;11.47;;
1276;SDS011;631;51.024;13.826;2023-05-10T14:03:56;12.80;;;12.20;;
1276;SDS011;631;51.024;13.826;2023-05-10T14:06:22;13.70;;;12.83;;
1276;SDS011;631;51.024;13.826;2023-05-10T14:08:48;12.40;;;11.80;;
1276;SDS011;631;51.024;13.826;2023-05-10T14:11:13;13.13;;;12.33;;
1276;SDS011;631;51.024;13.826;2023-05-10T14:13:39;13.13;;;12.53;;
1276;SDS011;631;51.024;13.826;2023-05-10T14:16:05;11.93;;;11.33;;
1276;SDS011;631;51.024;13.826;2023-05-10T14:18:31;13.40;;;12.70;;
1276;SDS011;631;51.024;13.826;2023-05-10T14:20:56;11.40;;;10.80;;
1276;SDS011;631;51.024;13.826;2023-05-10T14:23:22;12.33;;;11.73;;
1276;SDS011;631;51.024;13.826;2023-05-10T14:25:53;13.17;;;12.30;;
1276;SDS011;631;51.024;13.826;2023-05-10T14:28:19;12.73;;;12.13;;
1276;SDS011;631;51.024;13.826;2023-05-10T14:30:45;13.50;;;12.80;;
1276;SDS011;631;51.024;13.826;2023-05-10T14:33:11;13.07;;;12.37;;
1276;SDS011;631;51.024;13.826;2023-05-10T14:35:37;12.03;;;11.40;;
1276;SDS011;631;51.024;13.826;2023-05-10T14:38:03;12.80;;;12.20;;
1276;SDS011;631;51.024;13.826;2023-05-10T14:40:29;13.37;;;12.60;;
1276;SDS011;631;51.024;13.826;2023-05-10T14:42:55;11.60;;;11.07;;
1276;SDS011;631;51.024;13.826;2023-05-10T14:45:21;13.37;;;12.73;;
1276;SDS011;631;51.024;13.826;2023-05-10T14:47:47;12.60;;;11.90;;
1276;SDS011;631;51.024;13.826;2023-05-10T14:50:13;12.93;;;12.33;;
1276;SDS011;631;51.024;13.826;2023-05-10T14:52:39;13.83;;;13.13;;
1276;SDS011;631;51.024;13.826;2023-05-10T14:55:05;13.47;;;12.77;;
1276;SDS011;631;51.024;13.826;2023-05-10T14:57:31;14.23;;;13.53;;
1276;SDS011;631;51.024;13.826;2023-05-10T14:59:58;13.90;;;12.90;;
1276;SDS011;631;51.024;13.826;2023-05-10T15:02:23;14.17;;;13.47;;
1276;SDS011;631;51.024;13.826;2023-05-10T15:04:49;13.43;;;12.73;;
1276;SDS011;631;51.024;13.826;2023-05-10T15:07:15;13.40;;;12.80;;
1276;SDS011;631;51.024;13.826;2023-05-10T15:09:43;13.53;;;12.83;;
1276;SDS011;631;51.024;13.826;2023-05-10T15:12:11;12.20;;;11.53;;
1276;SDS011;631;51.024;13.826;2023-05-10T15:14:37;13.27;;;12.47;;
1276;SDS011;631;51.024;13.826;2023-05-10T15:17:03;13.13;;;12.43;;
1276;SDS011;631;51.024;13.826;2023-05-10T15:19:31;13.43;;;12.70;;
1276;SDS011;631;51.024;13.826;2023-05-10T15:21:58;12.93;;;12.33;;
1276;SDS011;631;51.024;13.826;2023-05-10T15:24:24;13.60;;;12.80;;
1276;SDS011;631;51.024;13.826;2023-05-10T15:26:50;13.80;;;13.07;;
1276;SDS011;631;51.024;13.826;2023-05-10T15:29:15;13.53;;;12.77;;
1276;SDS011;631;51.024;13.826;2023-05-10T15:31:45;13.10;;;12.50;;
1276;SDS011;631;51.024;13.826;2023-05-10T15:34:14;12.80;;;12.10;;
1276;SDS011;631;51.024;13.826;2023-05-10T15:36:40;13.43;;;12.73;;
1276;SDS011;631;51.024;13.826;2023-05-10T15:39:05;13.03;;;12.33;;
1276;SDS011;631;51.024;13.826;2023-05-10T15:41:31;13.73;;;13.07;;
1276;SDS011;631;51.024;13.826;2023-05-10T15:43:57;13.60;;;12.90;;
1276;SDS011;631;51.024;13.826;2023-05-10T15:46:26;12.63;;;11.93;;
1276;SDS011;631;51.024;13.826;2023-05-10T15:48:52;12.33;;;11.73;;
1276;SDS011;631;51.024;13.826;2023-05-10T15:51:18;13.10;;;12.50;;